Time;durP1;ratioP1;P1;durP2;ratioP2;P2;SDS_P1;SDS_P2;PMS_P1;PMS_P2;Temp;Humidity;BMP_temperature;BMP_pressure;BME280_temperature;BME280_humidity;BME280_pressure;Samples;Min_cycle;Max_cycle;Signal;HPM_P1;HPM_P2
2022/09/20 00:02:17;;;;;;;1.85;1.50;;;;;;;13.03;72.41;101652.53;5155737;28;20038;-81
2022/09/20 00:04:48;;;;;;;0.20;0.20;;;;;;;13.03;73.32;101649.91;5153108;28;20318;-83
2022/09/20 00:07:18;;;;;;;0.50;0.50;;;;;;;13.01;72.45;101649.09;5150677;28;20487;-81
2022/09/20 00:09:49;;;;;;;0.30;0.30;;;;;;;13.11;72.02;101637.44;5146983;28;20034;-81
2022/09/20 00:12:20;;;;;;;0.22;0.22;;;;;;;13.14;72.13;101642.63;5150919;28;20046;-83
2022/09/20 00:14:50;;;;;;;0.40;0.40;;;;;;;13.17;72.35;101632.03;5163433;28;20080;-82
2022/09/20 00:17:21;;;;;;;0.30;0.30;;;;;;;13.10;71.79;101633.06;5159012;28;20184;-81
2022/09/20 00:19:51;;;;;;;0.30;0.30;;;;;;;12.97;74.16;101637.75;5128811;28;20037;-81
2022/09/20 00:22:22;;;;;;;0.30;0.30;;;;;;;12.91;74.13;101632.59;5130836;28;20041;-81
2022/09/20 00:24:52;;;;;;;0.80;0.65;;;;;;;13.09;72.74;101644.53;5137792;28;20026;-83
2022/09/20 00:27:23;;;;;;;0.30;0.30;;;;;;;13.08;72.63;101653.31;5135092;28;20045;-81
2022/09/20 00:29:54;;;;;;;0.63;0.63;;;;;;;13.11;72.67;101650.59;5144579;28;20093;-82
2022/09/20 00:32:24;;;;;;;0.57;0.57;;;;;;;12.93;73.20;101649.25;5127302;28;20033;-81
2022/09/20 00:35:07;;;;;;;0.32;0.32;;;;;;;12.97;74.00;101647.41;5153226;28;20076;-82
2022/09/20 00:37:40;;;;;;;0.30;0.30;;;;;;;12.98;73.47;101651.78;5147066;28;20045;-81
2022/09/20 00:40:21;;;;;;;0.30;0.30;;;;;;;13.02;72.08;101654.31;5156238;28;20303;-82
2022/09/20 00:42:52;;;;;;;0.30;0.30;;;;;;;13.00;72.35;101639.47;5136008;28;20633;-82
2022/09/20 00:45:28;;;;;;;0.57;0.57;;;;;;;13.03;72.58;101644.63;5144785;28;20029;-83
2022/09/20 00:48:08;;;;;;;0.40;0.40;;;;;;;13.10;72.51;101650.66;5158902;28;20229;-81
2022/09/20 00:50:50;;;;;;;0.20;0.20;;;;;;;13.09;72.22;101641.00;5137821;28;20118;-83
2022/09/20 00:53:28;;;;;;;1.20;1.10;;;;;;;13.10;72.23;101640.97;5153902;28;20045;-82
2022/09/20 00:56:04;;;;;;;0.30;0.30;;;;;;;13.10;71.91;101643.59;5152052;28;20391;-81
2022/09/20 00:58:39;;;;;;;0.30;0.30;;;;;;;13.08;72.04;101650.69;5182197;28;20041;-83
2022/09/20 01:01:10;;;;;;;0.28;0.28;;;;;;;13.07;71.76;101641.03;5157808;28;20564;-83
2022/09/20 01:03:41;;;;;;;2.83;0.85;;;;;;;13.10;72.29;101643.59;5162074;28;20045;-81
2022/09/20 01:06:15;;;;;;;0.30;0.30;;;;;;;13.10;71.72;101640.97;5144407;28;20022;-81
2022/09/20 01:08:49;;;;;;;0.30;0.30;;;;;;;13.05;72.00;101642.84;5126668;28;20053;-82
2022/09/20 01:11:20;;;;;;;0.20;0.20;;;;;;;13.02;72.61;101648.16;5152700;28;20065;-84
2022/09/20 01:13:50;;;;;;;0.98;0.98;;;;;;;13.09;71.72;101652.44;5150100;28;20042;-85
2022/09/20 01:16:23;;;;;;;0.75;0.75;;;;;;;13.07;71.70;101643.69;5173459;28;20037;-83
2022/09/20 01:18:57;;;;;;;0.40;0.40;;;;;;;13.06;71.56;101649.84;5154874;28;20037;-82
2022/09/20 01:21:28;;;;;;;0.30;0.30;;;;;;;13.09;71.62;101656.81;5151875;28;20038;-81
2022/09/20 01:24:15;;;;;;;1.27;0.52;;;;;;;13.01;71.87;101649.09;5136310;28;20134;-82
2022/09/20 01:26:51;;;;;;;0.30;0.30;;;;;;;13.07;71.89;101646.31;5151200;28;20142;-81
2022/09/20 01:29:34;;;;;;;0.20;0.20;;;;;;;13.10;71.87;101635.69;5150123;28;20056;-81
2022/09/20 01:32:11;;;;;;;0.60;0.60;;;;;;;13.13;71.94;101634.78;5144610;28;20073;-82
2022/09/20 01:34:55;;;;;;;0.63;0.63;;;;;;;13.06;72.01;101639.31;5149615;28;20117;-81
2022/09/20 01:37:37;;;;;;;0.30;0.30;;;;;;;13.05;71.84;101632.31;5146907;28;20050;-82
2022/09/20 01:40:18;;;;;;;0.20;0.20;;;;;;;13.08;72.18;101634.88;5145433;28;20045;-81
2022/09/20 01:43:13;;;;;;;0.35;0.35;;;;;;;13.00;72.20;101636.81;5161977;28;20034;-82
2022/09/20 01:45:48;;;;;;;0.40;0.40;;;;;;;12.97;71.93;101642.16;5130639;28;20049;-81
2022/09/20 01:48:41;;;;;;;7.13;1.20;;;;;;;12.99;72.33;101649.09;5159461;28;20645;-83
2022/09/20 01:51:41;;;;;;;0.38;0.38;;;;;;;12.96;72.01;101650.94;5174090;28;20026;-81
2022/09/20 01:54:27;;;;;;;0.40;0.40;;;;;;;12.96;72.11;101658.84;5142780;28;22489;-81
2022/09/20 01:57:37;;;;;;;0.30;0.30;;;;;;;12.88;72.60;101653.78;5180312;28;20121;-81
2022/09/20 02:00:12;;;;;;;0.57;0.57;;;;;;;12.92;71.92;101647.50;5132252;28;20026;-82
2022/09/20 02:03:05;;;;;;;1.27;1.17;;;;;;;12.98;71.85;101651.78;5144268;28;20049;-81
2022/09/20 02:05:46;;;;;;;0.30;0.30;;;;;;;12.97;72.02;101653.56;5155052;28;20481;-81
2022/09/20 02:08:28;;;;;;;0.40;0.40;;;;;;;12.90;71.92;101654.56;5150804;28;20096;-81
2022/09/20 02:11:06;;;;;;;0.40;0.40;;;;;;;12.93;71.71;101656.31;5159638;28;20058;-83
2022/09/20 02:13:39;;;;;;;0.20;0.20;;;;;;;12.98;71.75;101651.78;5131091;28;20038;-81
2022/09/20 02:16:58;;;;;;;0.20;0.20;;;;;;;12.94;71.76;101652.75;5151234;28;20087;-83
2022/09/20 02:19:47;;;;;;;0.38;0.38;;;;;;;12.95;71.90;101654.47;5096903;28;20035;-83
2022/09/20 02:22:55;;;;;;;0.45;0.45;;;;;;;12.87;71.91;101647.63;5078272;29;20114;-83
2022/09/20 02:26:16;;;;;;;0.55;0.55;;;;;;;12.94;71.80;101650.09;5161794;28;20037;-81
2022/09/20 02:28:53;;;;;;;0.30;0.30;;;;;;;12.89;71.78;101643.19;5169391;28;20045;-81
2022/09/20 02:31:41;;;;;;;0.20;0.20;;;;;;;12.87;71.87;101639.72;5136908;28;20525;-81
2022/09/20 02:34:37;;;;;;;1.05;1.05;;;;;;;12.91;71.55;101641.41;5149261;28;20030;-83
2022/09/20 02:37:14;;;;;;;0.40;0.40;;;;;;;12.91;71.62;101632.59;5169589;28;20121;-81
2022/09/20 02:39:51;;;;;;;0.50;0.50;;;;;;;13.02;71.84;101635.00;5139189;28;20230;-83
2022/09/20 02:42:52;;;;;;;0.25;0.25;;;;;;;12.99;71.51;101638.56;5147851;28;20073;-82
2022/09/20 02:45:34;;;;;;;0.50;0.50;;;;;;;13.02;71.82;101635.00;5142419;28;20033;-82
2022/09/20 02:48:08;;;;;;;0.75;0.75;;;;;;;12.89;71.55;101637.91;5131455;28;20201;-81
2022/09/20 02:50:58;;;;;;;1.30;0.95;;;;;;;12.84;71.91;101645.06;5144402;28;20026;-81
2022/09/20 02:53:36;;;;;;;0.70;0.70;;;;;;;12.89;71.26;101637.91;5158146;28;20522;-82
2022/09/20 02:56:28;;;;;;;0.40;0.40;;;;;;;12.88;71.57;101637.97;5134401;28;20729;-82
2022/09/20 02:59:34;;;;;;;0.32;0.32;;;;;;;12.83;71.64;101638.06;5148812;28;20636;-84
2022/09/20 03:03:00;;;;;;;;;;;;;;;;;;;;;
2022/09/20 03:06:30;;;;;;;0.35;0.35;;;;;;;12.84;71.48;101644.19;5147588;28;20033;-81
2022/09/20 03:09:55;;;;;;;0.63;0.63;;;;;;;12.84;71.62;101642.44;5107893;28;20096;-82
2022/09/20 03:12:46;;;;;;;0.35;0.35;;;;;;;12.80;72.17;101638.13;5122787;28;20169;-82
2022/09/20 03:15:46;;;;;;;0.73;0.73;;;;;;;12.83;71.60;101630.16;5143930;28;20037;-82
2022/09/20 03:18:26;;;;;;;0.38;0.38;;;;;;;12.81;71.90;101628.47;5146739;28;20041;-81
2022/09/20 03:21:25;;;;;;;0.20;0.20;;;;;;;12.84;71.89;101623.13;5137678;28;20041;-81
2022/09/20 03:24:27;;;;;;;1.55;1.08;;;;;;;12.79;71.91;101632.91;5184897;28;20041;-82
2022/09/20 03:27:14;;;;;;;0.30;0.30;;;;;;;12.80;71.72;101627.59;5148264;28;20102;-81
2022/09/20 03:30:08;;;;;;;0.20;0.20;;;;;;;12.80;72.03;101630.22;5155997;28;20072;-84
2022/09/20 03:33:28;;;;;;;0.38;0.38;;;;;;;12.77;71.85;101632.91;5152328;28;20113;-81
2022/09/20 03:36:12;;;;;;;1.48;0.98;;;;;;;12.79;72.19;101631.13;5132123;28;20053;-81
2022/09/20 03:39:06;;;;;;;0.30;0.30;;;;;;;12.83;71.73;101635.44;5151382;28;20037;-81
2022/09/20 03:41:52;;;;;;;0.20;0.20;;;;;;;12.82;71.71;101633.69;5152366;28;20030;-80
2022/09/20 03:44:45;;;;;;;0.55;0.55;;;;;;;12.80;71.72;101627.59;5136015;28;20060;-80
2022/09/20 03:47:53;;;;;;;0.30;0.30;;;;;;;12.75;71.73;101635.59;5160052;28;20069;-81
2022/09/20 03:50:39;;;;;;;0.20;0.20;;;;;;;12.81;71.86;101639.84;5132230;28;20042;-81
2022/09/20 03:53:31;;;;;;;0.30;0.30;;;;;;;12.83;71.98;101638.06;5174218;28;20058;-80
2022/09/20 03:56:50;;;;;;;0.20;0.20;;;;;;;12.88;71.90;101638.81;5159142;28;20034;-81
2022/09/20 03:59:23;;;;;;;0.57;0.57;;;;;;;12.84;72.12;101633.66;5107002;28;20041;-81
2022/09/20 04:02:12;;;;;;;;;;;;;;;12.84;71.69;101642.44;5149460;28;20029;-81
2022/09/20 04:04:53;;;;;;;9.52;1.13;;;;;;;12.70;73.62;101641.84;5163631;28;20097;-81
2022/09/20 04:07:45;;;;;;;0.30;0.30;;;;;;;12.72;72.32;101640.94;5144042;28;20041;-81
2022/09/20 04:10:45;;;;;;;1.35;0.43;;;;;;;12.67;72.50;101647.19;5177861;28;20502;-80
2022/09/20 04:13:16;;;;;;;0.55;0.55;;;;;;;12.67;72.94;101652.47;5145572;28;20530;-81
2022/09/20 04:16:04;;;;;;;0.40;0.40;;;;;;;12.69;72.84;101653.28;5148321;28;20076;-81
2022/09/20 04:19:21;;;;;;;0.20;0.20;;;;;;;12.73;72.51;101647.06;5142475;28;20103;-81
2022/09/20 04:22:06;;;;;;;0.40;0.40;;;;;;;12.80;72.73;101647.81;5126749;28;20034;-81
2022/09/20 04:25:06;;;;;;;0.20;0.20;;;;;;;12.75;72.12;101645.25;5161764;28;20472;-81
2022/09/20 04:27:47;;;;;;;0.43;0.43;;;;;;;12.73;72.88;101649.69;5121649;28;20053;-81
2022/09/20 04:30:29;;;;;;;0.40;0.30;;;;;;;12.63;73.85;101648.13;5142399;28;20037;-80
2022/09/20 04:33:19;;;;;;;0.40;0.40;;;;;;;12.75;72.54;101647.91;5158641;28;20042;-81
2022/09/20 04:36:28;;;;;;;1.25;1.15;;;;;;;12.68;73.04;101643.66;5131245;28;20030;-81
2022/09/20 04:39:14;;;;;;;6.03;1.90;;;;;;;12.74;72.84;101643.53;5146411;28;20041;-81
2022/09/20 04:42:15;;;;;;;0.82;0.82;;;;;;;12.74;72.65;101651.44;5165158;28;20675;-81
2022/09/20 04:45:16;;;;;;;0.30;0.30;;;;;;;12.68;72.71;101655.03;5147160;28;20080;-80
2022/09/20 04:48:12;;;;;;;0.30;0.30;;;;;;;12.73;72.25;101650.53;5157380;28;20566;-80
2022/09/20 04:51:11;;;;;;;0.90;0.90;;;;;;;12.68;72.87;101652.41;5131066;28;20068;-80
2022/09/20 04:53:42;;;;;;;1.05;0.98;;;;;;;12.77;73.10;101658.38;5143231;28;20038;-80
2022/09/20 04:56:20;;;;;;;0.30;0.30;;;;;;;12.71;72.39;101656.75;5124127;28;20394;-80
2022/09/20 04:59:12;;;;;;;0.30;0.30;;;;;;;12.69;72.42;101650.63;5133790;28;20061;-80
2022/09/20 05:02:21;;;;;;;0.40;0.40;;;;;;;12.75;73.18;101661.06;5141390;28;20282;-80
2022/09/20 05:05:10;;;;;;;0.30;0.30;;;;;;;12.70;72.55;101663.78;5142934;28;20161;-81
2022/09/20 05:07:59;;;;;;;1.58;1.48;;;;;;;12.50;74.76;101672.09;5155129;28;20037;-81
2022/09/20 05:10:39;;;;;;;1.95;1.33;;;;;;;12.60;73.00;101670.13;5143729;28;20410;-80
2022/09/20 05:13:37;;;;;;;0.55;0.55;;;;;;;12.66;72.92;101679.69;5169489;28;20050;-81
2022/09/20 05:16:26;;;;;;;0.47;0.47;;;;;;;12.66;72.71;101680.53;5149959;28;20042;-80
2022/09/20 05:19:06;;;;;;;1.20;0.88;;;;;;;12.59;73.19;101676.28;5128205;28;20045;-81
2022/09/20 05:22:08;;;;;;;0.52;0.52;;;;;;;12.62;72.81;101680.63;5134897;28;20040;-80
2022/09/20 05:24:55;;;;;;;0.45;0.45;;;;;;;12.68;72.73;101680.53;5129138;28;20080;-80
2022/09/20 05:27:41;;;;;;;0.57;0.57;;;;;;;12.58;73.15;101685.97;5144244;28;20038;-80
2022/09/20 05:30:33;;;;;;;1.83;1.67;;;;;;;12.67;72.51;101689.31;5145428;28;20038;-81
2022/09/20 05:33:12;;;;;;;1.98;1.83;;;;;;;12.72;72.54;101679.53;5155625;28;20410;-81
2022/09/20 05:35:56;;;;;;;6.07;1.13;;;;;;;12.67;73.14;101687.53;5131429;28;20038;-80
2022/09/20 05:38:46;;;;;;;0.60;0.60;;;;;;;12.57;74.01;101692.13;5137419;28;20461;-80
2022/09/20 05:41:35;;;;;;;0.68;0.68;;;;;;;12.59;73.18;101694.72;5132763;28;20446;-80
2022/09/20 05:44:44;;;;;;;0.52;0.47;;;;;;;12.62;74.03;101691.16;5148740;28;20054;-80
2022/09/20 05:47:44;;;;;;;0.40;0.40;;;;;;;12.64;73.05;101694.63;5116442;28;20132;-80
2022/09/20 05:50:32;;;;;;;0.30;0.30;;;;;;;12.64;72.79;101694.63;5158632;28;20034;-80
2022/09/20 05:53:27;;;;;;;0.75;0.75;;;;;;;12.72;73.71;101692.72;5146476;28;20049;-80
2022/09/20 05:56:06;;;;;;;1.05;1.05;;;;;;;12.67;73.07;101699.84;5147058;28;20084;-80
2022/09/20 05:58:59;;;;;;;1.75;0.55;;;;;;;12.64;73.19;101702.53;5160481;28;20076;-80
2022/09/20 06:01:46;;;;;;;1.08;1.02;;;;;;;12.67;72.60;101703.34;5153458;28;20077;-79
2022/09/20 06:04:25;;;;;;;0.57;0.57;;;;;;;12.68;72.89;101701.59;5144502;28;20042;-80
2022/09/20 06:07:15;;;;;;;0.80;0.80;;;;;;;12.67;72.94;101700.69;5127852;28;20053;-80
2022/09/20 06:10:04;;;;;;;0.85;0.85;;;;;;;12.67;74.37;101700.69;5132308;28;20025;-80
2022/09/20 06:12:57;;;;;;;1.50;1.40;;;;;;;12.75;73.24;101700.56;5148626;28;20042;-80
2022/09/20 06:15:49;;;;;;;0.65;0.65;;;;;;;12.78;73.22;101708.38;5166706;28;20033;-80
2022/09/20 06:18:42;;;;;;;0.38;0.38;;;;;;;12.71;74.64;101710.28;5130888;28;20038;-80
2022/09/20 06:21:13;;;;;;;0.77;0.77;;;;;;;12.72;74.39;101708.50;5143153;28;20037;-80
2022/09/20 06:23:44;;;;;;;0.35;0.35;;;;;;;12.70;75.17;101718.19;5149567;28;20343;-80
2022/09/20 06:26:25;;;;;;;0.50;0.50;;;;;;;12.70;74.63;101712.94;5129332;28;20653;-80
2022/09/20 06:29:10;;;;;;;0.60;0.60;;;;;;;12.72;75.09;101713.78;5128068;28;20050;-80
2022/09/20 06:31:41;;;;;;;2.10;1.45;;;;;;;12.64;74.67;101715.69;5132726;28;20026;-80
2022/09/20 06:34:14;;;;;;;0.40;0.40;;;;;;;12.73;75.20;101716.38;5133382;28;20100;-80
2022/09/20 06:42:52;;;;;;;0.40;0.40;;;;;;;12.73;75.68;101710.25;5163859;28;20049;-80
2022/09/20 06:45:22;;;;;;;0.43;0.43;;;;;;;12.72;75.95;101708.50;5147053;28;20029;-81
2022/09/20 06:47:53;;;;;;;1.08;0.85;;;;;;;12.77;74.59;101711.91;5135474;28;20117;-80
2022/09/20 06:50:26;;;;;;;0.55;0.55;;;;;;;12.72;76.12;101714.66;5163374;28;20446;-80
2022/09/20 06:52:57;;;;;;;;;;;;;;;12.78;75.93;101721.53;5137094;28;20042;-81
2022/09/20 06:55:33;;;;;;;0.20;0.20;;;;;;;12.71;76.28;101717.31;5163947;28;19927;-80
2022/09/20 06:58:15;;;;;;;1.05;0.75;;;;;;;12.72;77.21;101724.31;5141516;28;20028;-80
2022/09/20 07:00:49;;;;;;;0.67;0.67;;;;;;;12.78;75.77;101718.91;5135166;28;20442;-80
2022/09/20 07:03:19;;;;;;;0.38;0.38;;;;;;;12.82;75.32;101717.97;5160843;28;20046;-80
2022/09/20 07:05:59;;;;;;;0.70;0.70;;;;;;;12.93;75.40;101717.75;5161758;28;20033;-80
2022/09/20 07:08:51;;;;;;;2.70;1.92;;;;;;;12.89;76.78;101719.56;5137988;28;20050;-80
2022/09/20 07:11:24;;;;;;;0.90;0.82;;;;;;;12.88;76.02;101720.47;5132119;28;20030;-81
2022/09/20 07:13:57;;;;;;;0.60;0.60;;;;;;;12.88;76.80;101720.47;5150923;28;20041;-80
2022/09/20 07:16:28;;;;;;;8.38;1.52;;;;;;;13.02;76.12;101722.81;5150004;28;20030;-80
2022/09/20 07:18:59;;;;;;;0.82;0.82;;;;;;;13.06;75.86;101727.09;5148295;28;20045;-81
2022/09/20 07:21:29;;;;;;;0.30;0.30;;;;;;;13.05;75.19;101727.16;5130905;28;20034;-80
2022/09/20 07:24:05;;;;;;;0.65;0.65;;;;;;;13.08;75.36;101740.28;5138970;28;20047;-80
2022/09/20 07:26:37;;;;;;;0.88;0.88;;;;;;;13.03;75.51;101739.47;5142567;28;20025;-80
2022/09/20 07:29:08;;;;;;;9.80;2.03;;;;;;;13.10;75.22;101737.59;5132560;28;20345;-80
2022/09/20 07:31:39;;;;;;;0.30;0.30;;;;;;;13.12;75.05;101735.78;5156187;28;20065;-81
2022/09/20 07:34:09;;;;;;;0.90;0.65;;;;;;;13.16;74.96;101740.09;5168824;28;20042;-80
2022/09/20 07:36:40;;;;;;;1.65;1.00;;;;;;;13.15;74.86;101739.22;5152587;28;20029;-80
2022/09/20 07:39:16;;;;;;;5.18;1.45;;;;;;;13.21;74.67;101738.25;5164120;28;20108;-80
2022/09/20 07:41:50;;;;;;;0.43;0.43;;;;;;;13.17;74.71;101733.91;5164229;28;20034;-80
2022/09/20 07:44:30;;;;;;;3.47;1.15;;;;;;;13.25;75.04;101733.75;5166084;28;20084;-80
2022/09/20 07:47:15;;;;;;;0.65;0.65;;;;;;;13.11;74.77;101732.28;5145784;28;20045;-81
2022/09/20 07:49:48;;;;;;;13.23;1.42;;;;;;;13.04;74.98;101742.09;5164144;28;20471;-80
2022/09/20 07:52:18;;;;;;;0.40;0.40;;;;;;;13.01;75.45;101738.66;5132668;28;20077;-80
2022/09/20 07:54:49;;;;;;;0.68;0.63;;;;;;;12.99;74.53;101737.81;5135403;28;20041;-81
2022/09/20 07:57:20;;;;;;;0.20;0.20;;;;;;;13.01;74.46;101741.31;5140164;28;20038;-80
2022/09/20 07:59:53;;;;;;;0.77;0.73;;;;;;;13.12;73.22;101747.19;5153501;28;20037;-80
2022/09/20 08:02:23;;;;;;;0.38;0.38;;;;;;;13.11;73.01;101742.81;5176857;28;20041;-80
2022/09/20 08:05:05;;;;;;;;;;;;;;;;;;;;;
2022/09/20 08:07:43;;;;;;;0.50;0.50;;;;;;;13.11;73.44;101755.13;5177978;28;20142;-80
2022/09/20 08:10:14;;;;;;;0.77;0.77;;;;;;;13.13;72.54;101748.94;5149563;28;20340;-81
2022/09/20 08:12:46;;;;;;;0.98;0.75;;;;;;;13.01;72.71;101749.22;5165944;28;20040;-80
2022/09/20 08:15:16;;;;;;;1.08;0.95;;;;;;;13.19;72.28;101751.44;5187602;28;20056;-80
2022/09/20 08:17:47;;;;;;;0.38;0.38;;;;;;;13.05;72.55;101761.41;5145025;28;20042;-80
2022/09/20 08:20:20;;;;;;;0.30;0.30;;;;;;;13.27;72.26;101758.28;5131304;28;20034;-80
2022/09/20 08:22:55;;;;;;;0.30;0.30;;;;;;;13.23;72.43;101753.09;5149329;28;20042;-80
2022/09/20 08:25:28;;;;;;;0.30;0.30;;;;;;;13.29;72.47;101759.13;5178397;28;20030;-81
2022/09/20 08:28:10;;;;;;;0.60;0.60;;;;;;;13.26;71.83;101757.44;5162380;28;20211;-81
2022/09/20 08:30:41;;;;;;;0.25;0.25;;;;;;;13.33;71.44;101758.19;5203735;28;20018;-81
2022/09/20 08:33:15;;;;;;;0.20;0.20;;;;;;;13.27;71.28;101759.19;5135922;28;20460;-80
2022/09/20 08:35:57;;;;;;;0.47;0.47;;;;;;;13.35;71.21;101766.91;5150884;28;20182;-80
2022/09/20 08:38:31;;;;;;;0.43;0.43;;;;;;;13.26;70.17;101767.97;5147917;28;20119;-80
2022/09/20 08:41:35;;;;;;;0.40;0.40;;;;;;;13.26;70.79;101764.50;5144853;28;20044;-80
2022/09/20 08:44:23;;;;;;;0.20;0.20;;;;;;;13.28;71.31;101763.56;5154150;28;20125;-81
2022/09/20 08:47:16;;;;;;;1.02;0.80;;;;;;;13.23;71.38;101768.03;5149247;28;20065;-80
2022/09/20 08:49:52;;;;;;;0.40;0.40;;;;;;;13.25;71.00;101775.94;5163248;28;20057;-80
2022/09/20 08:52:36;;;;;;;0.65;0.63;;;;;;;13.39;70.71;101771.25;5131672;28;20030;-80
2022/09/20 08:55:16;;;;;;;0.20;0.20;;;;;;;13.40;70.83;101765.09;5147225;28;20030;-80
2022/09/20 08:57:52;;;;;;;0.20;0.20;;;;;;;13.49;68.67;101769.25;5163888;28;20125;-80
2022/09/20 09:00:40;;;;;;;0.20;0.20;;;;;;;13.44;69.00;101773.78;5161017;28;20546;-80
2022/09/20 09:03:19;;;;;;;0.35;0.35;;;;;;;13.45;69.68;101771.09;5174376;28;20054;-80
2022/09/20 09:05:55;;;;;;;0.68;0.68;;;;;;;13.53;68.46;101771.81;5148780;28;20033;-80
2022/09/20 09:08:29;;;;;;;2.08;0.43;;;;;;;13.56;69.00;101764.72;5149716;28;20383;-80
2022/09/20 09:11:29;;;;;;;0.85;0.85;;;;;;;13.64;67.98;101779.47;5159321;28;20025;-80
2022/09/20 09:14:47;;;;;;;0.38;0.30;;;;;;;13.67;68.67;101771.50;5146883;28;20407;-80
2022/09/20 09:17:13;;;;;;;;;;;;;;;;;;;;;
2022/09/20 09:19:48;;;;;;;4.78;0.60;;;;;;;13.75;67.41;101776.59;5172800;28;20104;-80
2022/09/20 09:22:30;;;;;;;0.20;0.20;;;;;;;13.78;67.40;101776.50;5130578;28;20065;-80
2022/09/20 09:25:22;;;;;;;0.20;0.20;;;;;;;13.84;66.04;101771.06;5132386;28;20100;-80
2022/09/20 09:28:10;;;;;;;0.30;0.30;;;;;;;13.88;66.36;101778.94;5166833;28;20042;-80
2022/09/20 09:30:50;;;;;;;1.15;0.45;;;;;;;13.87;63.78;101770.16;5144156;28;20029;-81
2022/09/20 09:33:35;;;;;;;0.30;0.30;;;;;;;13.95;64.70;101773.47;5133764;28;20132;-80
2022/09/20 09:36:24;;;;;;;0.28;0.28;;;;;;;13.91;65.22;101769.16;5136825;28;20041;-80
2022/09/20 09:39:22;;;;;;;1.75;1.33;;;;;;;13.85;65.24;101774.59;5178198;28;20033;-81
2022/09/20 09:42:25;;;;;;;0.20;0.20;;;;;;;13.97;65.29;101773.44;5160087;28;20049;-81
2022/09/20 09:45:11;;;;;;;1.35;1.05;;;;;;;13.92;64.01;101770.91;5138728;28;20437;-80
2022/09/20 09:47:46;;;;;;;0.15;0.15;;;;;;;13.99;64.35;101769.00;5136157;28;20126;-80
2022/09/20 09:50:33;;;;;;;0.40;0.40;;;;;;;13.95;65.26;101767.31;5153591;28;20041;-81
2022/09/20 09:53:40;;;;;;;;;;;;;;;;;;;;;
2022/09/20 09:56:20;;;;;;;0.20;0.20;;;;;;;14.09;64.92;101766.97;5180282;28;20034;-81
2022/09/20 09:59:30;;;;;;;0.30;0.30;;;;;;;14.28;63.93;101759.47;5172562;28;20065;-82
2022/09/20 10:02:28;;;;;;;0.20;0.20;;;;;;;14.24;64.05;101761.31;5126417;28;20153;-81
2022/09/20 10:05:20;;;;;;;0.63;0.63;;;;;;;14.30;62.56;101765.56;5144736;28;20134;-81
2022/09/20 10:08:28;;;;;;;0.30;0.30;;;;;;;14.33;62.49;101769.00;5162806;28;20057;-81
2022/09/20 10:11:17;;;;;;;5.30;1.13;;;;;;;14.30;62.08;101765.56;5130644;28;20387;-81
2022/09/20 10:13:56;;;;;;;0.20;0.20;;;;;;;14.36;62.78;101762.75;5121295;28;20049;-81
2022/09/20 10:16:54;;;;;;;0.65;0.65;;;;;;;14.31;58.88;101765.53;5160623;28;20065;-81
2022/09/20 10:19:49;;;;;;;0.20;0.20;;;;;;;14.32;62.31;101761.97;5117479;28;20040;-82
2022/09/20 10:22:45;;;;;;;3.70;1.63;;;;;;;14.32;61.82;101759.34;5114810;28;20045;-81
2022/09/20 10:25:42;;;;;;;0.20;0.20;;;;;;;14.38;61.94;101765.38;5131784;28;20037;-80
2022/09/20 10:28:28;;;;;;;0.22;0.22;;;;;;;14.38;62.63;101765.38;5141232;28;20454;-80
2022/09/20 10:31:40;;;;;;;0.20;0.20;;;;;;;14.33;62.21;101763.72;5126027;28;20031;-80
2022/09/20 10:34:50;;;;;;;1.40;0.77;;;;;;;14.31;61.00;101775.22;5094089;28;20070;-82
2022/09/20 10:37:26;;;;;;;0.20;0.20;;;;;;;14.44;61.14;101774.00;5107323;28;20049;-81
2022/09/20 10:43:45;;;;;;;0.45;0.40;;;;;;;14.42;63.46;101786.34;5145288;28;20050;-81
2022/09/20 10:46:46;;;;;;;0.35;0.35;;;;;;;14.40;64.79;101790.84;5148324;28;20044;-81
2022/09/20 10:49:49;;;;;;;1.33;0.73;;;;;;;14.41;65.63;101786.41;5129737;28;20050;-80
2022/09/20 10:52:45;;;;;;;5.28;0.38;;;;;;;14.40;66.06;101795.22;5146713;28;20026;-81
2022/09/20 10:55:17;;;;;;;0.20;0.20;;;;;;;14.42;65.97;101790.78;5166246;28;20025;-80
2022/09/20 10:58:02;;;;;;;1.08;0.95;;;;;;;14.43;65.70;101790.72;5173340;28;20022;-81
2022/09/20 11:00:56;;;;;;;0.63;0.63;;;;;;;14.46;65.60;101798.59;5166581;28;20137;-81
2022/09/20 11:04:08;;;;;;;0.20;0.20;;;;;;;14.45;66.02;101791.56;5130811;28;20050;-81
2022/09/20 11:07:13;;;;;;;0.20;0.20;;;;;;;14.50;65.44;101796.72;5144737;28;20388;-81
2022/09/20 11:09:58;;;;;;;0.10;0.10;;;;;;;14.52;65.75;101794.03;5150184;28;20564;-81
2022/09/20 11:12:41;;;;;;;0.20;0.20;;;;;;;14.47;65.33;101797.69;5130701;28;20096;-81
2022/09/20 11:15:25;;;;;;;0.25;0.25;;;;;;;14.47;65.19;101797.69;5145205;28;20026;-81
2022/09/20 11:18:35;;;;;;;;;;;;;;;;;;;;;
2022/09/20 11:21:30;;;;;;;0.73;0.73;;;;;;;14.38;63.85;101802.34;5155934;28;20076;-80
2022/09/20 11:24:29;;;;;;;0.20;0.20;;;;;;;14.32;62.76;101803.38;5103735;28;20610;-80
2022/09/20 11:27:17;;;;;;;0.20;0.20;;;;;;;14.21;63.21;101794.84;5115611;28;20531;-80
2022/09/20 11:30:07;;;;;;;0.50;0.50;;;;;;;14.31;63.18;101801.63;5145259;28;20490;-80
2022/09/20 11:32:56;;;;;;;0.20;0.20;;;;;;;14.11;61.79;101805.63;5136978;28;20065;-80
2022/09/20 11:35:35;;;;;;;0.30;0.30;;;;;;;14.29;63.46;101806.06;5145019;28;20092;-80
2022/09/20 11:38:24;;;;;;;0.10;0.10;;;;;;;14.23;64.35;101803.59;5132197;28;20095;-80
2022/09/20 11:40:58;;;;;;;0.20;0.20;;;;;;;14.31;64.06;101804.28;5125080;28;20036;-80
2022/09/20 11:43:30;;;;;;;2.28;1.05;;;;;;;14.34;64.17;101806.81;5132083;28;20060;-80
2022/09/20 11:46:08;;;;;;;0.30;0.30;;;;;;;14.34;63.74;101806.81;5140679;28;20100;-80
2022/09/20 11:48:43;;;;;;;0.22;0.22;;;;;;;14.41;62.83;101810.16;5159352;28;20168;-79
2022/09/20 11:51:30;;;;;;;0.20;0.20;;;;;;;14.45;59.80;101814.47;5129634;28;20108;-80
2022/09/20 11:54:21;;;;;;;0.20;0.20;;;;;;;14.47;61.86;101813.53;5125580;28;20042;-80
2022/09/20 11:56:57;;;;;;;0.52;0.52;;;;;;;14.53;62.94;101803.69;5137120;28;20456;-80
2022/09/20 11:59:55;;;;;;;0.30;0.30;;;;;;;14.55;60.97;101809.81;5139702;28;20023;-79
2022/09/20 12:02:52;;;;;;;0.20;0.20;;;;;;;14.54;61.94;101806.31;5165829;28;20056;-81
2022/09/20 12:05:23;;;;;;;0.20;0.20;;;;;;;14.66;60.95;101810.44;5149456;28;20029;-80
2022/09/20 12:07:57;;;;;;;1.95;0.47;;;;;;;14.69;60.09;101806.84;5143576;28;20525;-80
2022/09/20 12:10:32;;;;;;;0.30;0.30;;;;;;;14.67;61.23;101813.94;5174114;28;20046;-81
2022/09/20 12:13:26;;;;;;;0.20;0.20;;;;;;;14.68;60.67;101815.66;5133251;28;20065;-80
2022/09/20 12:16:11;;;;;;;0.20;0.20;;;;;;;14.73;60.70;101819.94;5127727;28;20126;-81
2022/09/20 12:18:52;;;;;;;0.20;0.20;;;;;;;14.52;59.86;101820.44;5146421;28;20128;-80
2022/09/20 12:21:23;;;;;;;0.20;0.20;;;;;;;14.69;60.90;101828.81;5131047;28;20403;-80
2022/09/20 12:24:06;;;;;;;;;;;;;;;;;;;;;
2022/09/20 12:26:42;;;;;;;0.75;0.75;;;;;;;14.56;61.85;101812.41;5178783;28;20037;-80
2022/09/20 12:29:30;;;;;;;0.20;0.20;;;;;;;14.64;62.65;101818.34;5142132;28;20125;-81
2022/09/20 12:32:34;;;;;;;0.43;0.43;;;;;;;14.64;62.98;101825.44;5130022;28;20037;-81
2022/09/20 12:35:37;;;;;;;0.20;0.20;;;;;;;14.61;63.78;101814.94;5154892;28;20529;-81
2022/09/20 12:38:20;;;;;;;0.30;0.30;;;;;;;14.52;64.47;101815.16;5137579;28;20120;-80
2022/09/20 12:41:11;;;;;;;0.20;0.20;;;;;;;14.66;64.29;101817.44;5149075;28;20034;-80
2022/09/20 12:43:55;;;;;;;0.10;0.10;;;;;;;14.70;63.88;101805.94;5132561;28;20587;-81
2022/09/20 12:46:32;;;;;;;;;;;;;;;14.61;64.30;101809.66;5149182;28;20069;-80
2022/09/20 12:52:49;;;;;;;0.20;0.20;;;;;;;14.72;64.15;101802.34;5151137;28;19928;-81
2022/09/20 12:52:49;;;;;;;0.57;0.57;;;;;;;14.74;64.16;101799.66;5175688;28;20137;-81
2022/09/20 12:55:28;;;;;;;0.40;0.40;;;;;;;14.74;64.82;101800.53;5146959;28;20060;-81
2022/09/20 12:58:17;;;;;;;0.28;0.28;;;;;;;14.73;64.46;101801.44;5140773;28;20061;-81
2022/09/20 13:01:10;;;;;;;0.20;0.20;;;;;;;14.85;63.19;101815.19;5157068;28;20465;-81
2022/09/20 13:03:45;;;;;;;0.40;0.40;;;;;;;14.88;63.94;101807.19;5139075;28;20564;-80
2022/09/20 13:06:18;;;;;;;0.22;0.22;;;;;;;14.72;62.48;101807.63;5134732;28;20037;-80
2022/09/20 13:09:04;;;;;;;0.20;0.20;;;;;;;14.57;61.07;101797.44;5141717;28;20054;-80